sensor_id;sensor_type;location;lat;lon;timestamp;pressure;altitude;pressure_sealevel;temperature;humidity
20628;BME280;10473;42.734;24.258;2023-02-28T00:01:14;92338.59;;;6.68;84.76
20628;BME280;10473;42.734;24.258;2023-02-28T00:03:42;92341.03;;;6.61;86.03
20628;BME280;10473;42.734;24.258;2023-02-28T00:06:10;92340.25;;;6.61;85.45
20628;BME280;10473;42.734;24.258;2023-02-28T00:08:38;92334.44;;;6.67;85.07
20628;BME280;10473;42.734;24.258;2023-02-28T00:11:08;92336.94;;;6.76;85.71
20628;BME280;10473;42.734;24.258;2023-02-28T00:13:38;92330.16;;;6.75;84.68
20628;BME280;10473;42.734;24.258;2023-02-28T00:16:10;92338.03;;;6.87;84.52
20628;BME280;10473;42.734;24.258;2023-02-28T00:18:39;92344.41;;;6.98;85.06
20628;BME280;10473;42.734;24.258;2023-02-28T00:21:07;92335.94;;;7.04;84.12
20628;BME280;10473;42.734;24.258;2023-02-28T00:23:36;92351.50;;;7.21;83.20
20628;BME280;10473;42.734;24.258;2023-02-28T00:26:04;92359.94;;;7.27;83.15
20628;BME280;10473;42.734;24.258;2023-02-28T00:28:31;92361.25;;;7.21;83.31
20628;BME280;10473;42.734;24.258;2023-02-28T00:30:59;92362.63;;;7.03;83.48
20628;BME280;10473;42.734;24.258;2023-02-28T00:33:28;92365.22;;;7.15;84.03
20628;BME280;10473;42.734;24.258;2023-02-28T00:36:02;92351.63;;;7.13;83.53
20628;BME280;10473;42.734;24.258;2023-02-28T00:38:30;92329.91;;;6.92;84.64
20628;BME280;10473;42.734;24.258;2023-02-28T00:41:00;92339.59;;;6.88;85.06
20628;BME280;10473;42.734;24.258;2023-02-28T00:43:32;92349.25;;;6.84;85.08
20628;BME280;10473;42.734;24.258;2023-02-28T00:46:00;92345.06;;;6.71;85.23
20628;BME280;10473;42.734;24.258;2023-02-28T00:48:29;92340.47;;;6.68;85.15
20628;BME280;10473;42.734;24.258;2023-02-28T00:50:56;92343.44;;;6.66;85.56
20628;BME280;10473;42.734;24.258;2023-02-28T00:53:25;92318.31;;;6.57;86.07
20628;BME280;10473;42.734;24.258;2023-02-28T00:55:52;92320.50;;;6.67;86.60
20628;BME280;10473;42.734;24.258;2023-02-28T00:58:20;92309.72;;;6.96;86.23
20628;BME280;10473;42.734;24.258;2023-02-28T01:00:48;92310.13;;;7.10;85.39
20628;BME280;10473;42.734;24.258;2023-02-28T01:03:16;92314.31;;;6.99;85.55
20628;BME280;10473;42.734;24.258;2023-02-28T01:05:46;92306.69;;;7.21;84.35
20628;BME280;10473;42.734;24.258;2023-02-28T01:08:14;92305.91;;;7.33;83.85
20628;BME280;10473;42.734;24.258;2023-02-28T01:10:42;92302.06;;;7.30;83.27
20628;BME280;10473;42.734;24.258;2023-02-28T01:13:10;92296.56;;;7.35;83.19
20628;BME280;10473;42.734;24.258;2023-02-28T01:15:41;92295.97;;;7.42;82.84
20628;BME280;10473;42.734;24.258;2023-02-28T01:18:11;92301.03;;;7.62;82.74
20628;BME280;10473;42.734;24.258;2023-02-28T01:20:39;92310.34;;;7.72;82.05
20628;BME280;10473;42.734;24.258;2023-02-28T01:23:09;92297.66;;;7.77;81.28
20628;BME280;10473;42.734;24.258;2023-02-28T01:25:37;92295.56;;;7.83;81.00
20628;BME280;10473;42.734;24.258;2023-02-28T01:28:05;92297.53;;;7.86;80.98
20628;BME280;10473;42.734;24.258;2023-02-28T01:30:34;92291.31;;;7.94;80.53
20628;BME280;10473;42.734;24.258;2023-02-28T01:33:02;92296.59;;;7.94;80.70
20628;BME280;10473;42.734;24.258;2023-02-28T01:35:32;92290.88;;;7.76;81.25
20628;BME280;10473;42.734;24.258;2023-02-28T01:38:00;92291.41;;;7.82;81.40
20628;BME280;10473;42.734;24.258;2023-02-28T01:40:29;92293.34;;;7.85;81.05
20628;BME280;10473;42.734;24.258;2023-02-28T01:42:57;92292.31;;;7.74;81.47
20628;BME280;10473;42.734;24.258;2023-02-28T01:45:26;92283.75;;;7.77;81.86
20628;BME280;10473;42.734;24.258;2023-02-28T01:47:59;92288.59;;;7.90;81.72
20628;BME280;10473;42.734;24.258;2023-02-28T01:50:31;92290.94;;;7.80;81.44
20628;BME280;10473;42.734;24.258;2023-02-28T01:53:04;92281.09;;;7.77;81.89
20628;BME280;10473;42.734;24.258;2023-02-28T01:55:36;92288.94;;;7.89;81.85
20628;BME280;10473;42.734;24.258;2023-02-28T01:58:06;92287.91;;;7.78;81.44
20628;BME280;10473;42.734;24.258;2023-02-28T02:00:35;92285.19;;;7.90;81.09
20628;BME280;10473;42.734;24.258;2023-02-28T02:03:08;92274.38;;;7.95;81.01
20628;BME280;10473;42.734;24.258;2023-02-28T02:05:39;92268.53;;;7.86;81.06
20628;BME280;10473;42.734;24.258;2023-02-28T02:08:10;92252.84;;;7.62;81.23
20628;BME280;10473;42.734;24.258;2023-02-28T02:10:42;92258.63;;;7.83;81.34
20628;BME280;10473;42.734;24.258;2023-02-28T02:13:24;92256.69;;;7.95;80.29
20628;BME280;10473;42.734;24.258;2023-02-28T02:16:02;92256.53;;;7.88;80.48
20628;BME280;10473;42.734;24.258;2023-02-28T02:18:39;92263.00;;;7.91;81.00
20628;BME280;10473;42.734;24.258;2023-02-28T02:21:41;92259.75;;;7.97;80.95
20628;BME280;10473;42.734;24.258;2023-02-28T02:24:33;92262.06;;;7.99;81.57
20628;BME280;10473;42.734;24.258;2023-02-28T02:27:29;92259.75;;;7.82;82.68
20628;BME280;10473;42.734;24.258;2023-02-28T02:36:06;92282.03;;;7.84;81.61
20628;BME280;10473;42.734;24.258;2023-02-28T02:38:38;92283.84;;;7.96;81.09
20628;BME280;10473;42.734;24.258;2023-02-28T02:41:15;92272.94;;;7.82;81.38
20628;BME280;10473;42.734;24.258;2023-02-28T02:43:48;92266.53;;;7.67;81.92
20628;BME280;10473;42.734;24.258;2023-02-28T02:46:21;92273.34;;;7.84;82.17
20628;BME280;10473;42.734;24.258;2023-02-28T02:48:50;92275.31;;;7.87;82.67
20628;BME280;10473;42.734;24.258;2023-02-28T02:51:22;92277.72;;;7.92;82.34
20628;BME280;10473;42.734;24.258;2023-02-28T02:53:54;92280.19;;;7.57;84.04
20628;BME280;10473;42.734;24.258;2023-02-28T02:56:26;92277.34;;;7.78;83.11
20628;BME280;10473;42.734;24.258;2023-02-28T02:58:59;92274.88;;;7.85;82.48
20628;BME280;10473;42.734;24.258;2023-02-28T03:01:29;92270.84;;;7.60;83.95
20628;BME280;10473;42.734;24.258;2023-02-28T03:04:01;92265.00;;;7.66;84.46
20628;BME280;10473;42.734;24.258;2023-02-28T03:06:31;92278.72;;;7.87;83.82
20628;BME280;10473;42.734;24.258;2023-02-28T03:09:00;92285.31;;;7.66;84.47
20628;BME280;10473;42.734;24.258;2023-02-28T03:11:29;92294.56;;;7.60;83.84
20628;BME280;10473;42.734;24.258;2023-02-28T03:14:25;92304.84;;;7.77;84.00
20628;BME280;10473;42.734;24.258;2023-02-28T03:17:20;92310.63;;;7.55;83.85
20628;BME280;10473;42.734;24.258;2023-02-28T03:20:00;92320.44;;;7.54;84.83
20628;BME280;10473;42.734;24.258;2023-02-28T03:22:53;92329.22;;;7.74;84.17
20628;BME280;10473;42.734;24.258;2023-02-28T03:25:31;92323.28;;;7.77;83.95
20628;BME280;10473;42.734;24.258;2023-02-28T03:28:05;92338.72;;;7.90;83.70
20628;BME280;10473;42.734;24.258;2023-02-28T03:30:41;92336.41;;;7.89;84.79
20628;BME280;10473;42.734;24.258;2023-02-28T03:33:14;92336.38;;;8.01;84.53
20628;BME280;10473;42.734;24.258;2023-02-28T03:35:47;92339.38;;;7.87;85.84
20628;BME280;10473;42.734;24.258;2023-02-28T03:38:22;92319.31;;;7.83;86.34
20628;BME280;10473;42.734;24.258;2023-02-28T03:40:58;92336.38;;;8.16;85.95
20628;BME280;10473;42.734;24.258;2023-02-28T03:43:29;92334.91;;;8.31;85.06
20628;BME280;10473;42.734;24.258;2023-02-28T03:46:02;92342.38;;;8.44;84.41
20628;BME280;10473;42.734;24.258;2023-02-28T03:48:39;92344.19;;;8.56;84.25
20628;BME280;10473;42.734;24.258;2023-02-28T03:51:10;92338.13;;;8.71;83.89
20628;BME280;10473;42.734;24.258;2023-02-28T03:53:44;92346.53;;;8.76;83.87
20628;BME280;10473;42.734;24.258;2023-02-28T03:56:16;92345.53;;;8.81;84.01
20628;BME280;10473;42.734;24.258;2023-02-28T03:58:49;92344.22;;;8.90;83.22
20628;BME280;10473;42.734;24.258;2023-02-28T04:01:21;92335.03;;;9.00;82.95
20628;BME280;10473;42.734;24.258;2023-02-28T04:03:51;92343.09;;;9.07;82.83
20628;BME280;10473;42.734;24.258;2023-02-28T04:06:20;92353.66;;;9.07;82.98
20628;BME280;10473;42.734;24.258;2023-02-28T04:08:50;92348.81;;;9.09;82.71
20628;BME280;10473;42.734;24.258;2023-02-28T04:11:23;92356.56;;;9.02;83.14
20628;BME280;10473;42.734;24.258;2023-02-28T04:13:51;92359.34;;;8.90;84.05
20628;BME280;10473;42.734;24.258;2023-02-28T04:16:19;92365.88;;;8.80;85.31
20628;BME280;10473;42.734;24.258;2023-02-28T04:18:46;92362.06;;;8.78;86.09
20628;BME280;10473;42.734;24.258;2023-02-28T04:21:14;92361.56;;;8.57;87.58
20628;BME280;10473;42.734;24.258;2023-02-28T04:23:42;92363.41;;;8.56;88.96
20628;BME280;10473;42.734;24.258;2023-02-28T04:26:11;92372.28;;;8.64;88.66
20628;BME280;10473;42.734;24.258;2023-02-28T04:28:38;92372.47;;;8.71;88.50
20628;BME280;10473;42.734;24.258;2023-02-28T04:31:06;92368.97;;;8.67;88.73
20628;BME280;10473;42.734;24.258;2023-02-28T04:33:34;92374.66;;;8.69;88.66
20628;BME280;10473;42.734;24.258;2023-02-28T04:36:03;92367.84;;;8.68;88.81
20628;BME280;10473;42.734;24.258;2023-02-28T04:38:33;92378.25;;;8.61;88.83
20628;BME280;10473;42.734;24.258;2023-02-28T04:41:02;92367.94;;;8.71;89.54
20628;BME280;10473;42.734;24.258;2023-02-28T04:43:31;92369.38;;;8.69;88.91
20628;BME280;10473;42.734;24.258;2023-02-28T04:46:02;92382.25;;;8.70;89.28
20628;BME280;10473;42.734;24.258;2023-02-28T04:48:32;92382.59;;;8.69;89.55
20628;BME280;10473;42.734;24.258;2023-02-28T04:51:02;92385.16;;;8.65;90.05
20628;BME280;10473;42.734;24.258;2023-02-28T04:53:30;92383.03;;;8.71;90.21
20628;BME280;10473;42.734;24.258;2023-02-28T04:55:57;92381.06;;;8.68;89.96
20628;BME280;10473;42.734;24.258;2023-02-28T04:58:25;92381.66;;;8.61;90.12
20628;BME280;10473;42.734;24.258;2023-02-28T05:01:01;92380.97;;;8.64;90.71
20628;BME280;10473;42.734;24.258;2023-02-28T05:03:29;92382.19;;;8.67;90.45
20628;BME280;10473;42.734;24.258;2023-02-28T05:05:57;92380.81;;;8.73;90.39
20628;BME280;10473;42.734;24.258;2023-02-28T05:08:25;92384.56;;;8.72;89.72
20628;BME280;10473;42.734;24.258;2023-02-28T05:10:52;92389.31;;;8.66;90.13
20628;BME280;10473;42.734;24.258;2023-02-28T05:13:21;92386.09;;;8.73;89.97
20628;BME280;10473;42.734;24.258;2023-02-28T05:15:49;92387.63;;;8.74;89.41
20628;BME280;10473;42.734;24.258;2023-02-28T05:18:18;92381.56;;;8.58;89.24
20628;BME280;10473;42.734;24.258;2023-02-28T05:20:46;92382.75;;;8.60;89.88
20628;BME280;10473;42.734;24.258;2023-02-28T05:23:15;92398.88;;;8.71;90.43
20628;BME280;10473;42.734;24.258;2023-02-28T05:25:44;92401.59;;;8.59;90.75
20628;BME280;10473;42.734;24.258;2023-02-28T05:28:12;92409.94;;;8.61;90.55
20628;BME280;10473;42.734;24.258;2023-02-28T05:30:40;92404.66;;;8.61;90.49
20628;BME280;10473;42.734;24.258;2023-02-28T05:33:35;92409.34;;;8.52;91.41
20628;BME280;10473;42.734;24.258;2023-02-28T05:36:03;92415.13;;;8.42;91.40
20628;BME280;10473;42.734;24.258;2023-02-28T05:38:31;92412.97;;;8.32;92.11
20628;BME280;10473;42.734;24.258;2023-02-28T05:40:59;92427.53;;;8.14;93.26
20628;BME280;10473;42.734;24.258;2023-02-28T05:43:27;92428.63;;;8.25;93.56
20628;BME280;10473;42.734;24.258;2023-02-28T05:45:55;92435.44;;;8.26;93.61
20628;BME280;10473;42.734;24.258;2023-02-28T05:48:22;92435.09;;;8.27;93.44
20628;BME280;10473;42.734;24.258;2023-02-28T05:50:52;92442.25;;;8.27;93.46
20628;BME280;10473;42.734;24.258;2023-02-28T05:53:20;92440.28;;;8.24;93.17
20628;BME280;10473;42.734;24.258;2023-02-28T05:55:48;92438.97;;;8.18;93.66
20628;BME280;10473;42.734;24.258;2023-02-28T05:58:16;92436.97;;;8.27;94.07
20628;BME280;10473;42.734;24.258;2023-02-28T06:00:43;92444.00;;;8.35;93.01
20628;BME280;10473;42.734;24.258;2023-02-28T06:03:11;92447.91;;;8.41;92.94
20628;BME280;10473;42.734;24.258;2023-02-28T06:05:39;92447.34;;;8.47;92.83
20628;BME280;10473;42.734;24.258;2023-02-28T06:08:08;92444.78;;;8.51;92.33
20628;BME280;10473;42.734;24.258;2023-02-28T06:10:36;92453.03;;;8.49;91.98
20628;BME280;10473;42.734;24.258;2023-02-28T06:13:06;92454.91;;;8.49;92.41
20628;BME280;10473;42.734;24.258;2023-02-28T06:15:34;92458.84;;;8.55;92.00
20628;BME280;10473;42.734;24.258;2023-02-28T06:18:01;92457.66;;;8.68;91.15
20628;BME280;10473;42.734;24.258;2023-02-28T06:20:29;92453.91;;;8.69;90.64
20628;BME280;10473;42.734;24.258;2023-02-28T06:22:57;92452.91;;;8.73;89.97
20628;BME280;10473;42.734;24.258;2023-02-28T06:25:27;92457.16;;;8.78;89.94
20628;BME280;10473;42.734;24.258;2023-02-28T06:27:55;92465.16;;;8.66;89.86
20628;BME280;10473;42.734;24.258;2023-02-28T06:30:23;92465.25;;;8.69;89.61
20628;BME280;10473;42.734;24.258;2023-02-28T06:32:53;92452.38;;;8.68;89.81
20628;BME280;10473;42.734;24.258;2023-02-28T06:35:21;92469.25;;;8.79;89.40
20628;BME280;10473;42.734;24.258;2023-02-28T06:37:49;92461.59;;;8.89;89.59
20628;BME280;10473;42.734;24.258;2023-02-28T06:40:17;92461.53;;;9.01;88.91
20628;BME280;10473;42.734;24.258;2023-02-28T06:42:46;92469.53;;;9.20;88.58
20628;BME280;10473;42.734;24.258;2023-02-28T06:45:14;92460.59;;;9.25;88.44
20628;BME280;10473;42.734;24.258;2023-02-28T06:47:41;92467.06;;;9.12;88.25
20628;BME280;10473;42.734;24.258;2023-02-28T06:50:11;92473.09;;;9.28;88.17
20628;BME280;10473;42.734;24.258;2023-02-28T06:52:39;92468.75;;;9.51;87.73
20628;BME280;10473;42.734;24.258;2023-02-28T06:55:08;92463.19;;;9.56;87.17
20628;BME280;10473;42.734;24.258;2023-02-28T06:57:35;92461.16;;;9.84;86.56
20628;BME280;10473;42.734;24.258;2023-02-28T07:00:07;92465.47;;;9.73;85.46
20628;BME280;10473;42.734;24.258;2023-02-28T07:02:36;92469.09;;;9.84;83.91
20628;BME280;10473;42.734;24.258;2023-02-28T07:05:04;92457.41;;;9.85;83.44
20628;BME280;10473;42.734;24.258;2023-02-28T07:07:32;92461.22;;;9.87;83.50
20628;BME280;10473;42.734;24.258;2023-02-28T07:10:02;92463.84;;;10.03;82.92
20628;BME280;10473;42.734;24.258;2023-02-28T07:12:30;92468.44;;;10.06;82.69
20628;BME280;10473;42.734;24.258;2023-02-28T07:14:58;92472.44;;;10.15;82.33
20628;BME280;10473;42.734;24.258;2023-02-28T07:17:26;92458.97;;;10.24;82.03
20628;BME280;10473;42.734;24.258;2023-02-28T07:19:54;92457.47;;;10.23;82.24
20628;BME280;10473;42.734;24.258;2023-02-28T07:22:22;92452.44;;;10.18;82.19
20628;BME280;10473;42.734;24.258;2023-02-28T07:24:51;92452.69;;;9.94;82.19
20628;BME280;10473;42.734;24.258;2023-02-28T07:27:19;92456.16;;;9.98;82.29
20628;BME280;10473;42.734;24.258;2023-02-28T07:29:51;92454.34;;;9.83;83.20
20628;BME280;10473;42.734;24.258;2023-02-28T07:32:21;92463.22;;;9.75;83.02
20628;BME280;10473;42.734;24.258;2023-02-28T07:34:51;92460.34;;;9.64;84.03
20628;BME280;10473;42.734;24.258;2023-02-28T07:37:18;92461.13;;;9.65;84.29
20628;BME280;10473;42.734;24.258;2023-02-28T07:39:46;92462.25;;;9.64;84.42
20628;BME280;10473;42.734;24.258;2023-02-28T07:42:14;92473.25;;;9.50;85.31
20628;BME280;10473;42.734;24.258;2023-02-28T07:44:41;92476.94;;;9.46;85.71
20628;BME280;10473;42.734;24.258;2023-02-28T07:47:10;92472.16;;;9.36;85.69
20628;BME280;10473;42.734;24.258;2023-02-28T07:49:37;92477.38;;;9.32;86.75
20628;BME280;10473;42.734;24.258;2023-02-28T07:52:07;92478.13;;;9.33;87.77
20628;BME280;10473;42.734;24.258;2023-02-28T07:54:35;92482.41;;;9.22;87.21
20628;BME280;10473;42.734;24.258;2023-02-28T07:57:02;92468.06;;;9.23;87.63
20628;BME280;10473;42.734;24.258;2023-02-28T07:59:30;92483.34;;;9.29;87.53
20628;BME280;10473;42.734;24.258;2023-02-28T08:01:58;92487.69;;;9.22;87.32
20628;BME280;10473;42.734;24.258;2023-02-28T08:04:26;92486.09;;;9.17;87.00
20628;BME280;10473;42.734;24.258;2023-02-28T08:06:55;92485.06;;;9.22;86.95
20628;BME280;10473;42.734;24.258;2023-02-28T08:09:24;92483.44;;;9.17;87.08
20628;BME280;10473;42.734;24.258;2023-02-28T08:11:52;92483.84;;;9.19;87.35
20628;BME280;10473;42.734;24.258;2023-02-28T08:14:19;92487.47;;;9.11;87.90
20628;BME280;10473;42.734;24.258;2023-02-28T08:16:47;92492.03;;;9.14;87.88
20628;BME280;10473;42.734;24.258;2023-02-28T08:19:15;92489.63;;;8.94;87.71
20628;BME280;10473;42.734;24.258;2023-02-28T08:21:42;92485.06;;;8.91;87.78
20628;BME280;10473;42.734;24.258;2023-02-28T08:24:10;92486.16;;;8.90;87.65
20628;BME280;10473;42.734;24.258;2023-02-28T08:26:39;92491.34;;;8.86;88.26
20628;BME280;10473;42.734;24.258;2023-02-28T08:29:07;92488.28;;;8.84;88.78
20628;BME280;10473;42.734;24.258;2023-02-28T08:31:34;92491.44;;;8.90;88.63
20628;BME280;10473;42.734;24.258;2023-02-28T08:34:05;92478.38;;;8.81;87.99
20628;BME280;10473;42.734;24.258;2023-02-28T08:36:33;92493.56;;;8.84;88.35
20628;BME280;10473;42.734;24.258;2023-02-28T08:39:01;92488.81;;;8.90;88.24
20628;BME280;10473;42.734;24.258;2023-02-28T08:41:29;92490.66;;;8.89;88.05
20628;BME280;10473;42.734;24.258;2023-02-28T08:43:58;92490.09;;;8.96;88.25
20628;BME280;10473;42.734;24.258;2023-02-28T08:46:26;92500.81;;;9.03;88.06
20628;BME280;10473;42.734;24.258;2023-02-28T08:48:55;92490.78;;;9.08;87.48
20628;BME280;10473;42.734;24.258;2023-02-28T08:51:26;92487.28;;;9.20;87.42
20628;BME280;10473;42.734;24.258;2023-02-28T08:53:55;92489.50;;;9.33;87.20
20628;BME280;10473;42.734;24.258;2023-02-28T08:56:23;92486.72;;;9.45;86.34
20628;BME280;10473;42.734;24.258;2023-02-28T08:58:51;92489.97;;;9.54;85.09
20628;BME280;10473;42.734;24.258;2023-02-28T09:01:24;92484.34;;;9.56;84.75
20628;BME280;10473;42.734;24.258;2023-02-28T09:03:54;92486.47;;;9.66;84.48
20628;BME280;10473;42.734;24.258;2023-02-28T09:06:23;92479.47;;;9.92;84.31
20628;BME280;10473;42.734;24.258;2023-02-28T09:08:51;92481.97;;;10.20;82.46
20628;BME280;10473;42.734;24.258;2023-02-28T09:11:19;92477.50;;;10.62;81.53
20628;BME280;10473;42.734;24.258;2023-02-28T09:13:47;92479.63;;;11.17;79.16
20628;BME280;10473;42.734;24.258;2023-02-28T09:16:16;92475.84;;;11.63;77.82
20628;BME280;10473;42.734;24.258;2023-02-28T09:18:45;92476.25;;;11.91;74.70
20628;BME280;10473;42.734;24.258;2023-02-28T09:21:14;92464.63;;;12.32;72.76
20628;BME280;10473;42.734;24.258;2023-02-28T09:23:45;92466.19;;;12.66;72.03
20628;BME280;10473;42.734;24.258;2023-02-28T09:26:14;92472.94;;;12.93;71.06
20628;BME280;10473;42.734;24.258;2023-02-28T09:28:42;92469.38;;;12.82;70.92
20628;BME280;10473;42.734;24.258;2023-02-28T09:31:12;92469.34;;;12.78;71.83
20628;BME280;10473;42.734;24.258;2023-02-28T09:33:40;92470.13;;;12.79;71.34
20628;BME280;10473;42.734;24.258;2023-02-28T09:36:10;92470.13;;;12.79;71.54
20628;BME280;10473;42.734;24.258;2023-02-28T09:38:37;92470.28;;;12.60;71.58
20628;BME280;10473;42.734;24.258;2023-02-28T09:41:12;92461.16;;;12.57;71.85
20628;BME280;10473;42.734;24.258;2023-02-28T09:43:44;92468.78;;;12.59;71.45
20628;BME280;10473;42.734;24.258;2023-02-28T09:46:27;92466.13;;;12.00;72.55
20628;BME280;10473;42.734;24.258;2023-02-28T09:48:56;92477.81;;;11.95;73.41
20628;BME280;10473;42.734;24.258;2023-02-28T09:51:34;92476.56;;;11.86;73.85
20628;BME280;10473;42.734;24.258;2023-02-28T09:54:05;92469.97;;;11.76;73.96
20628;BME280;10473;42.734;24.258;2023-02-28T09:56:37;92462.91;;;11.61;74.36
20628;BME280;10473;42.734;24.258;2023-02-28T09:59:14;92460.31;;;11.42;75.40
20628;BME280;10473;42.734;24.258;2023-02-28T10:01:51;92458.25;;;11.55;75.28
20628;BME280;10473;42.734;24.258;2023-02-28T10:04:36;92452.47;;;11.72;75.75
20628;BME280;10473;42.734;24.258;2023-02-28T10:07:17;92447.75;;;11.62;74.49
20628;BME280;10473;42.734;24.258;2023-02-28T10:09:47;92446.53;;;11.56;74.44
20628;BME280;10473;42.734;24.258;2023-02-28T10:12:20;92435.09;;;11.78;74.81
20628;BME280;10473;42.734;24.258;2023-02-28T10:14:51;92440.91;;;11.87;73.57
20628;BME280;10473;42.734;24.258;2023-02-28T10:17:22;92438.09;;;12.02;74.16
20628;BME280;10473;42.734;24.258;2023-02-28T10:19:58;92446.00;;;12.28;73.55
20628;BME280;10473;42.734;24.258;2023-02-28T10:22:40;92439.34;;;12.12;72.36
20628;BME280;10473;42.734;24.258;2023-02-28T10:25:18;92441.91;;;12.34;72.75
20628;BME280;10473;42.734;24.258;2023-02-28T10:27:46;92448.84;;;12.13;71.50
20628;BME280;10473;42.734;24.258;2023-02-28T10:30:14;92437.19;;;12.21;72.09
20628;BME280;10473;42.734;24.258;2023-02-28T10:32:47;92446.28;;;12.20;72.63
20628;BME280;10473;42.734;24.258;2023-02-28T10:35:18;92439.25;;;12.05;72.88
20628;BME280;10473;42.734;24.258;2023-02-28T10:37:48;92436.19;;;12.03;72.98
20628;BME280;10473;42.734;24.258;2023-02-28T10:40:29;92434.19;;;11.67;73.31
20628;BME280;10473;42.734;24.258;2023-02-28T10:43:00;92429.34;;;11.50;73.47
20628;BME280;10473;42.734;24.258;2023-02-28T10:45:29;92422.78;;;11.40;73.11
20628;BME280;10473;42.734;24.258;2023-02-28T10:47:59;92423.34;;;11.53;73.94
20628;BME280;10473;42.734;24.258;2023-02-28T10:50:35;92412.88;;;11.89;73.07
20628;BME280;10473;42.734;24.258;2023-02-28T10:53:28;92402.28;;;12.22;73.01
20628;BME280;10473;42.734;24.258;2023-02-28T10:56:01;92400.69;;;12.18;71.56
20628;BME280;10473;42.734;24.258;2023-02-28T10:58:31;92396.66;;;12.27;71.79
20628;BME280;10473;42.734;24.258;2023-02-28T11:00:59;92393.25;;;12.30;71.36
20628;BME280;10473;42.734;24.258;2023-02-28T11:03:32;92401.16;;;12.56;71.06
20628;BME280;10473;42.734;24.258;2023-02-28T11:06:06;92394.44;;;12.73;69.88
20628;BME280;10473;42.734;24.258;2023-02-28T11:08:44;92390.28;;;13.66;67.99
20628;BME280;10473;42.734;24.258;2023-02-28T11:11:13;92386.16;;;13.72;66.34
20628;BME280;10473;42.734;24.258;2023-02-28T11:13:41;92398.09;;;13.99;66.73
20628;BME280;10473;42.734;24.258;2023-02-28T11:16:10;92387.81;;;14.01;65.55
20628;BME280;10473;42.734;24.258;2023-02-28T11:18:42;92387.59;;;14.27;65.33
20628;BME280;10473;42.734;24.258;2023-02-28T11:21:17;92385.03;;;14.62;64.50
20628;BME280;10473;42.734;24.258;2023-02-28T11:23:49;92388.88;;;14.75;64.24
20628;BME280;10473;42.734;24.258;2023-02-28T11:26:36;92395.13;;;14.14;64.46
20628;BME280;10473;42.734;24.258;2023-02-28T11:29:19;92395.75;;;13.87;65.52
20628;BME280;10473;42.734;24.258;2023-02-28T11:32:07;92387.94;;;13.07;68.12
20628;BME280;10473;42.734;24.258;2023-02-28T11:34:40;92390.06;;;12.51;70.30
20628;BME280;10473;42.734;24.258;2023-02-28T11:37:12;92389.84;;;11.97;71.97
20628;BME280;10473;42.734;24.258;2023-02-28T11:39:42;92374.13;;;11.59;73.57
20628;BME280;10473;42.734;24.258;2023-02-28T11:42:29;92373.63;;;11.24;74.71
20628;BME280;10473;42.734;24.258;2023-02-28T11:45:11;92385.41;;;11.00;75.96
20628;BME280;10473;42.734;24.258;2023-02-28T11:47:46;92378.81;;;10.68;75.46
20628;BME280;10473;42.734;24.258;2023-02-28T11:50:27;92367.84;;;10.47;77.05
20628;BME280;10473;42.734;24.258;2023-02-28T11:53:02;92367.09;;;10.47;77.13
20628;BME280;10473;42.734;24.258;2023-02-28T11:55:36;92368.63;;;10.48;77.43
20628;BME280;10473;42.734;24.258;2023-02-28T11:58:23;92368.16;;;10.65;77.68
20628;BME280;10473;42.734;24.258;2023-02-28T12:01:03;92363.56;;;10.62;77.18
20628;BME280;10473;42.734;24.258;2023-02-28T12:03:43;92355.09;;;10.53;76.76
20628;BME280;10473;42.734;24.258;2023-02-28T12:06:20;92352.00;;;10.51;76.03
20628;BME280;10473;42.734;24.258;2023-02-28T12:08:59;92356.72;;;10.83;75.24
20628;BME280;10473;42.734;24.258;2023-02-28T12:11:38;92348.75;;;10.83;74.72
20628;BME280;10473;42.734;24.258;2023-02-28T12:14:26;92350.69;;;11.09;74.95
20628;BME280;10473;42.734;24.258;2023-02-28T12:17:05;92345.97;;;11.25;74.55
20628;BME280;10473;42.734;24.258;2023-02-28T12:19:43;92346.31;;;11.46;73.32
20628;BME280;10473;42.734;24.258;2023-02-28T12:22:23;92342.50;;;11.47;71.49
20628;BME280;10473;42.734;24.258;2023-02-28T12:27:44;92341.69;;;11.69;69.95
20628;BME280;10473;42.734;24.258;2023-02-28T12:30:16;92346.63;;;11.70;69.33
20628;BME280;10473;42.734;24.258;2023-02-28T12:32:48;92355.91;;;11.83;70.26
20628;BME280;10473;42.734;24.258;2023-02-28T12:35:22;92348.16;;;12.01;70.25
20628;BME280;10473;42.734;24.258;2023-02-28T12:37:56;92355.38;;;12.04;68.73
20628;BME280;10473;42.734;24.258;2023-02-28T12:40:28;92348.97;;;12.05;67.69
20628;BME280;10473;42.734;24.258;2023-02-28T12:43:07;92354.91;;;11.95;67.31
20628;BME280;10473;42.734;24.258;2023-02-28T12:45:41;92352.44;;;11.79;68.29
20628;BME280;10473;42.734;24.258;2023-02-28T12:48:13;92356.97;;;11.79;67.38
20628;BME280;10473;42.734;24.258;2023-02-28T12:50:43;92361.41;;;11.68;68.64
20628;BME280;10473;42.734;24.258;2023-02-28T12:53:15;92357.31;;;11.48;68.77
20628;BME280;10473;42.734;24.258;2023-02-28T12:55:48;92352.00;;;11.48;67.74
20628;BME280;10473;42.734;24.258;2023-02-28T12:58:27;92340.25;;;11.49;68.79
20628;BME280;10473;42.734;24.258;2023-02-28T13:04:11;92342.00;;;11.38;68.59
20628;BME280;10473;42.734;24.258;2023-02-28T13:06:59;92297.94;;;11.30;71.90
20628;BME280;10473;42.734;24.258;2023-02-28T13:09:33;92339.44;;;11.71;71.14
20628;BME280;10473;42.734;24.258;2023-02-28T13:12:01;92329.84;;;11.92;72.00
20628;BME280;10473;42.734;24.258;2023-02-28T13:14:40;92331.97;;;12.13;70.23
20628;BME280;10473;42.734;24.258;2023-02-28T13:17:14;92319.19;;;12.25;70.76
20628;BME280;10473;42.734;24.258;2023-02-28T13:19:55;92323.00;;;12.28;69.53
20628;BME280;10473;42.734;24.258;2023-02-28T13:22:38;92323.50;;;12.40;68.59
20628;BME280;10473;42.734;24.258;2023-02-28T13:28:09;92302.81;;;12.56;71.49
20628;BME280;10473;42.734;24.258;2023-02-28T13:31:05;92317.00;;;12.78;70.56
20628;BME280;10473;42.734;24.258;2023-02-28T13:33:34;92315.50;;;12.77;70.35
20628;BME280;10473;42.734;24.258;2023-02-28T13:36:26;92318.91;;;12.74;71.05